Time;durP1;ratioP1;P1;durP2;ratioP2;P2;SDS_P1;SDS_P2;PMS_P1;PMS_P2;Temp;Humidity;BMP_temperature;BMP_pressure;BME280_temperature;BME280_humidity;BME280_pressure;Samples;Min_cycle;Max_cycle;Signal;HPM_P1;HPM_P2
2023/12/15 00:00:38;;;;;;;31.95;19.08;;;4.70;99.90;;;;;;5052769;28;20208;-63
2023/12/15 00:03:05;;;;;;;26.30;15.90;;;4.60;99.90;;;;;;5052282;28;20233;-62
2023/12/15 00:05:31;;;;;;;29.73;15.98;;;4.60;99.90;;;;;;5052558;28;20226;-61
2023/12/15 00:07:59;;;;;;;26.40;16.30;;;4.60;99.90;;;;;;5052495;28;20210;-61
2023/12/15 00:10:26;;;;;;;27.05;16.63;;;4.50;99.90;;;;;;5052100;28;20206;-63
2023/12/15 00:12:54;;;;;;;29.95;17.25;;;4.50;99.90;;;;;;5052045;28;20228;-61
2023/12/15 00:15:21;;;;;;;27.63;17.23;;;4.40;99.90;;;;;;5051627;28;20668;-62
2023/12/15 00:17:47;;;;;;;27.25;16.55;;;4.30;99.90;;;;;;5052131;28;20202;-62
2023/12/15 00:20:14;;;;;;;23.70;15.80;;;4.30;99.90;;;;;;5052312;28;20201;-61
2023/12/15 00:22:41;;;;;;;31.20;18.40;;;4.20;99.90;;;;;;5051996;28;20223;-61
2023/12/15 00:25:08;;;;;;;28.30;17.50;;;4.10;99.90;;;;;;5052267;28;20234;-61
2023/12/15 00:27:35;;;;;;;28.63;17.58;;;4.00;99.90;;;;;;5052582;28;20292;-60
2023/12/15 00:30:04;;;;;;;31.45;18.35;;;3.90;99.90;;;;;;5055998;28;20197;-61
2023/12/15 00:32:30;;;;;;;27.95;17.50;;;3.90;99.90;;;;;;5055963;28;20221;-61
2023/12/15 00:34:57;;;;;;;32.25;17.35;;;3.80;99.90;;;;;;5056558;28;20224;-61
2023/12/15 00:37:24;;;;;;;35.17;19.95;;;3.80;99.90;;;;;;5056217;28;20210;-62
2023/12/15 00:39:51;;;;;;;29.15;17.45;;;3.70;99.90;;;;;;5055737;28;20667;-61
2023/12/15 00:42:17;;;;;;;28.60;18.08;;;3.70;99.90;;;;;;5055250;28;20711;-62
2023/12/15 00:44:45;;;;;;;32.85;18.65;;;3.60;99.90;;;;;;5055215;28;20707;-62
2023/12/15 00:47:14;;;;;;;30.67;18.05;;;3.60;99.90;;;;;;5055421;28;20202;-61
2023/12/15 00:49:41;;;;;;;30.23;18.25;;;3.60;99.90;;;;;;5055549;28;20244;-62
2023/12/15 00:52:08;;;;;;;36.63;18.95;;;3.60;99.90;;;;;;5055200;28;20538;-63
2023/12/15 00:54:35;;;;;;;35.03;18.35;;;3.60;99.90;;;;;;5055523;28;20194;-61
2023/12/15 00:57:01;;;;;;;29.58;17.85;;;3.60;99.90;;;;;;5055643;28;20204;-61
2023/12/15 00:59:28;;;;;;;32.55;18.23;;;3.60;99.90;;;;;;5055577;28;20212;-61
2023/12/15 01:01:55;;;;;;;26.92;16.75;;;3.70;99.90;;;;;;5054924;28;20229;-63
2023/12/15 01:04:23;;;;;;;27.95;16.50;;;3.70;99.90;;;;;;5054951;28;20217;-62
2023/12/15 01:06:50;;;;;;;29.15;17.95;;;3.70;99.90;;;;;;5054765;28;20206;-62
2023/12/15 01:09:17;;;;;;;29.40;16.92;;;3.70;99.90;;;;;;5054816;28;20206;-62
2023/12/15 01:11:44;;;;;;;29.02;16.48;;;3.70;99.90;;;;;;5054633;28;20243;-63
2023/12/15 01:14:11;;;;;;;28.88;16.45;;;3.70;99.90;;;;;;5055183;28;20198;-62
2023/12/15 01:16:44;;;;;;;31.80;17.27;;;3.70;99.90;;;;;;5054553;28;20691;-62
2023/12/15 01:19:11;;;;;;;30.73;18.38;;;3.80;99.90;;;;;;5055066;28;20190;-62
2023/12/15 01:21:39;;;;;;;35.88;18.45;;;3.80;99.90;;;;;;5054878;28;20224;-61
2023/12/15 01:24:06;;;;;;;30.67;18.08;;;3.80;99.90;;;;;;5054931;28;20317;-62
2023/12/15 01:26:33;;;;;;;29.98;18.17;;;3.90;99.90;;;;;;5055301;28;20202;-61
2023/12/15 01:29:00;;;;;;;30.10;18.13;;;3.90;99.90;;;;;;5055083;28;20552;-61
2023/12/15 01:31:27;;;;;;;30.30;18.00;;;4.00;99.90;;;;;;5055041;28;20711;-62
2023/12/15 01:33:54;;;;;;;28.23;17.65;;;4.00;99.90;;;;;;5054376;28;20215;-62
2023/12/15 01:36:20;;;;;;;23.83;16.33;;;4.00;99.90;;;;;;5054430;28;20588;-62
2023/12/15 01:38:48;;;;;;;29.02;16.70;;;4.00;99.90;;;;;;5054631;28;20204;-61
2023/12/15 01:41:15;;;;;;;29.40;16.98;;;4.10;99.90;;;;;;5054286;28;20206;-62
2023/12/15 01:43:42;;;;;;;31.83;17.88;;;4.10;99.90;;;;;;5054219;28;20671;-61
2023/12/15 01:46:09;;;;;;;25.10;16.98;;;4.10;99.90;;;;;;5054048;28;20236;-61
2023/12/15 01:48:35;;;;;;;29.23;18.85;;;4.10;99.90;;;;;;5054387;28;20209;-63
2023/12/15 01:51:03;;;;;;;31.77;18.35;;;4.10;99.90;;;;;;5054454;28;20205;-62
2023/12/15 01:53:30;;;;;;;25.90;16.50;;;4.20;99.90;;;;;;5054679;28;20206;-61
2023/12/15 01:55:58;;;;;;;27.00;16.42;;;4.20;99.90;;;;;;5054210;28;20524;-62
2023/12/15 01:58:25;;;;;;;28.00;17.00;;;4.20;99.90;;;;;;5054000;28;20680;-62
2023/12/15 02:00:51;;;;;;;28.58;18.30;;;4.20;99.90;;;;;;5054478;28;20680;-62
2023/12/15 02:03:18;;;;;;;25.80;15.35;;;4.20;99.90;;;;;;5054240;28;20593;-61
2023/12/15 02:05:45;;;;;;;22.35;15.30;;;4.20;99.90;;;;;;5055504;28;20229;-62
2023/12/15 02:08:12;;;;;;;30.10;16.15;;;4.20;99.90;;;;;;5054550;28;20205;-62
2023/12/15 02:10:38;;;;;;;28.02;16.33;;;4.20;99.90;;;;;;5054008;28;20206;-62
2023/12/15 02:13:07;;;;;;;29.33;17.40;;;4.20;99.90;;;;;;5053987;28;20223;-61
2023/12/15 02:15:34;;;;;;;26.85;16.25;;;4.20;99.90;;;;;;5054049;28;20208;-66
2023/12/15 02:18:02;;;;;;;24.08;16.13;;;4.20;99.90;;;;;;5055373;28;20244;-61
2023/12/15 02:20:28;;;;;;;24.88;15.05;;;4.20;99.90;;;;;;5055053;28;20265;-61
2023/12/15 02:22:57;;;;;;;26.98;15.70;;;4.20;99.90;;;;;;5055290;28;20221;-61
2023/12/15 02:25:24;;;;;;;28.55;16.08;;;4.20;99.90;;;;;;5055263;28;20233;-61
2023/12/15 02:27:51;;;;;;;25.85;15.25;;;4.20;99.90;;;;;;5057375;28;20259;-61
2023/12/15 02:30:18;;;;;;;25.13;16.25;;;4.20;99.90;;;;;;5056697;28;20205;-61
2023/12/15 02:32:44;;;;;;;22.25;14.25;;;4.20;99.90;;;;;;5056199;28;20229;-61
2023/12/15 02:35:14;;;;;;;27.25;15.93;;;4.20;99.90;;;;;;5056914;28;20210;-61
2023/12/15 02:37:40;;;;;;;25.83;14.18;;;4.20;99.90;;;;;;5055640;28;20205;-61
2023/12/15 02:40:09;;;;;;;32.30;15.70;;;4.20;99.90;;;;;;5056172;28;20208;-62
2023/12/15 02:42:36;;;;;;;26.27;15.48;;;4.20;99.90;;;;;;5053515;28;20221;-62
2023/12/15 02:45:03;;;;;;;25.08;14.80;;;4.20;99.90;;;;;;5053210;28;20221;-62
2023/12/15 02:47:30;;;;;;;25.73;14.70;;;4.30;99.90;;;;;;5052770;28;20624;-61
2023/12/15 02:49:57;;;;;;;28.98;16.70;;;4.30;99.90;;;;;;5053137;28;20289;-61
2023/12/15 02:52:24;;;;;;;23.52;14.93;;;4.30;99.90;;;;;;5052767;28;20221;-61
2023/12/15 02:54:50;;;;;;;23.38;14.77;;;4.30;99.90;;;;;;5053361;28;20198;-61
2023/12/15 02:57:18;;;;;;;27.63;16.35;;;4.30;99.90;;;;;;5053019;28;20202;-60
2023/12/15 02:59:45;;;;;;;22.00;13.95;;;4.40;99.90;;;;;;5052919;28;20197;-62
2023/12/15 03:02:12;;;;;;;27.52;15.75;;;4.40;99.90;;;;;;5083984;22;20260;-65
2023/12/15 03:04:39;;;;;;;25.08;15.45;;;4.40;99.90;;;;;;5078039;28;20225;-64
2023/12/15 03:07:05;;;;;;;24.25;15.38;;;4.40;99.90;;;;;;5081582;28;20268;-66
2023/12/15 03:09:32;;;;;;;26.88;16.75;;;4.40;99.90;;;;;;5078468;28;20201;-66
2023/12/15 03:11:59;;;;;;;25.30;15.57;;;4.40;99.90;;;;;;5078019;28;20232;-65
2023/12/15 03:14:27;;;;;;;26.73;15.57;;;4.50;99.90;;;;;;5079152;28;20200;-66
2023/12/15 03:16:54;;;;;;;27.85;15.50;;;4.40;99.90;;;;;;5078294;28;20207;-65
2023/12/15 03:19:20;;;;;;;28.02;15.93;;;4.40;99.90;;;;;;5080221;28;20209;-63
2023/12/15 03:21:47;;;;;;;25.98;15.40;;;4.50;99.90;;;;;;5076994;28;20221;-64
2023/12/15 03:24:14;;;;;;;26.00;14.93;;;4.50;99.90;;;;;;5076078;28;20203;-65
2023/12/15 03:26:41;;;;;;;27.40;16.00;;;4.40;99.90;;;;;;5077272;28;20224;-65
2023/12/15 03:29:07;;;;;;;24.42;15.43;;;4.50;99.90;;;;;;5077316;28;20354;-66
2023/12/15 03:31:35;;;;;;;30.50;15.30;;;4.50;99.90;;;;;;5077701;28;20204;-65
2023/12/15 03:34:02;;;;;;;24.88;15.25;;;4.50;99.90;;;;;;5078268;28;20205;-65
2023/12/15 03:36:30;;;;;;;26.80;15.00;;;4.40;99.90;;;;;;5077024;28;20199;-65
2023/12/15 03:38:57;;;;;;;27.45;17.30;;;4.40;99.90;;;;;;5075752;28;20197;-65
2023/12/15 03:41:24;;;;;;;28.63;16.10;;;4.40;99.90;;;;;;5075813;28;20200;-65
2023/12/15 03:43:51;;;;;;;31.15;16.90;;;4.40;99.90;;;;;;5073524;28;20208;-65
2023/12/15 03:46:17;;;;;;;28.55;16.00;;;4.40;99.90;;;;;;5073507;28;20231;-65
2023/12/15 03:48:45;;;;;;;25.05;16.08;;;4.40;99.90;;;;;;5075094;28;20200;-65
2023/12/15 03:51:12;;;;;;;33.00;18.17;;;4.40;99.90;;;;;;5075475;28;20201;-65
2023/12/15 03:53:39;;;;;;;27.67;17.08;;;4.40;99.90;;;;;;5074340;28;20227;-64
2023/12/15 03:56:07;;;;;;;27.02;16.50;;;4.40;99.90;;;;;;5076261;28;20201;-65
2023/12/15 03:58:33;;;;;;;28.70;16.52;;;4.40;99.90;;;;;;5076786;28;20216;-66
2023/12/15 04:01:00;;;;;;;25.85;16.27;;;4.50;99.90;;;;;;5074798;28;20197;-65
2023/12/15 04:03:28;;;;;;;24.77;15.50;;;4.50;99.90;;;;;;5074826;28;20228;-65
2023/12/15 04:05:56;;;;;;;24.25;13.45;;;4.50;99.90;;;;;;5076881;28;20252;-65
2023/12/15 04:08:22;;;;;;;26.65;15.85;;;4.50;99.90;;;;;;5076888;28;20247;-66
2023/12/15 04:12:47;;;;;;;23.73;13.82;;;4.50;99.90;;;;;;5091844;27;20610;-65
2023/12/15 04:15:18;;;;;;;29.17;16.52;;;4.50;99.90;;;;;;5092751;28;20207;-66
2023/12/15 04:17:45;;;;;;;27.23;16.63;;;4.50;99.90;;;;;;5092681;28;20564;-66
2023/12/15 04:20:12;;;;;;;25.33;16.17;;;4.50;99.90;;;;;;5091725;28;20232;-64
2023/12/15 04:22:39;;;;;;;27.73;15.65;;;4.60;99.90;;;;;;5091765;28;20216;-64
2023/12/15 04:25:06;;;;;;;26.33;16.13;;;4.60;99.90;;;;;;5091853;28;20200;-64
2023/12/15 04:27:33;;;;;;;28.48;16.30;;;4.60;99.90;;;;;;5091247;28;20204;-66
2023/12/15 04:30:01;;;;;;;29.80;15.80;;;4.60;99.90;;;;;;5091036;28;20291;-64
2023/12/15 04:32:28;;;;;;;30.85;16.95;;;4.60;99.90;;;;;;5090540;28;20250;-64
2023/12/15 04:34:54;;;;;;;29.83;16.73;;;4.60;99.90;;;;;;5091178;28;20200;-66
2023/12/15 04:37:21;;;;;;;29.23;16.85;;;4.50;99.90;;;;;;5091241;28;20200;-63
2023/12/15 04:39:48;;;;;;;32.30;18.77;;;4.60;99.90;;;;;;5090553;28;20250;-66
2023/12/15 04:42:15;;;;;;;31.67;17.55;;;4.60;99.90;;;;;;5090509;28;20725;-66
2023/12/15 04:44:42;;;;;;;31.40;18.70;;;4.60;99.90;;;;;;5090517;28;20273;-66
2023/12/15 04:47:10;;;;;;;29.80;18.05;;;4.60;99.90;;;;;;5090771;28;20209;-66
2023/12/15 04:49:37;;;;;;;38.03;18.90;;;4.60;99.90;;;;;;5090871;28;20686;-65
2023/12/15 04:52:04;;;;;;;30.98;17.42;;;4.60;99.90;;;;;;5091136;28;20706;-66
2023/12/15 04:54:31;;;;;;;35.55;20.08;;;4.70;99.90;;;;;;5091844;28;20572;-65
2023/12/15 04:56:57;;;;;;;39.13;19.05;;;4.70;99.90;;;;;;5092743;28;20211;-66
2023/12/15 04:59:24;;;;;;;33.83;17.08;;;4.70;99.90;;;;;;5092216;28;20576;-66
2023/12/15 05:01:51;;;;;;;30.75;17.77;;;4.70;99.90;;;;;;5096625;22;20233;-61
2023/12/15 05:04:19;;;;;;;32.65;17.95;;;4.70;99.90;;;;;;5050366;28;20206;-62
2023/12/15 05:06:46;;;;;;;39.63;19.88;;;4.70;99.90;;;;;;5050452;28;20505;-63
2023/12/15 05:09:13;;;;;;;37.35;20.08;;;4.70;99.90;;;;;;5050202;28;20204;-62
2023/12/15 05:11:40;;;;;;;34.45;18.13;;;4.70;99.90;;;;;;5049799;28;20652;-62
2023/12/15 05:14:07;;;;;;;32.08;18.27;;;4.70;99.90;;;;;;5049673;28;20206;-61
2023/12/15 05:16:33;;;;;;;33.47;20.13;;;4.70;99.90;;;;;;5049573;28;20211;-62
2023/12/15 05:19:00;;;;;;;40.03;19.60;;;4.70;99.90;;;;;;5049728;28;20205;-63
2023/12/15 05:21:28;;;;;;;38.60;21.15;;;4.70;99.90;;;;;;5049713;28;20217;-61
2023/12/15 05:23:58;;;;;;;36.17;19.75;;;4.80;99.90;;;;;;5036982;28;20202;-63
2023/12/15 05:26:25;;;;;;;33.45;18.90;;;4.80;99.90;;;;;;5035920;28;20268;-63
2023/12/15 05:28:52;;;;;;;38.40;20.70;;;4.80;99.90;;;;;;5035924;28;20198;-62
2023/12/15 05:31:19;;;;;;;44.05;21.08;;;4.90;99.90;;;;;;5036321;28;20336;-64
2023/12/15 05:33:46;;;;;;;40.70;20.80;;;4.90;99.90;;;;;;5035709;28;20202;-63
2023/12/15 05:36:18;;;;;;;36.33;19.38;;;4.90;99.90;;;;;;5035779;28;20198;-62
2023/12/15 05:38:47;;;;;;;36.97;20.70;;;4.90;99.90;;;;;;5036010;28;20214;-63
2023/12/15 05:41:13;;;;;;;32.50;18.20;;;4.90;99.90;;;;;;5035724;28;20652;-63
2023/12/15 05:43:40;;;;;;;32.50;19.80;;;4.90;99.90;;;;;;5036080;28;20202;-63
2023/12/15 05:46:08;;;;;;;35.33;19.63;;;4.90;99.90;;;;;;5035884;28;20276;-63
2023/12/15 05:48:34;;;;;;;37.83;19.88;;;4.90;99.90;;;;;;5036426;28;20199;-62
2023/12/15 05:51:02;;;;;;;38.25;19.40;;;4.90;99.90;;;;;;5036285;28;20587;-62
2023/12/15 05:53:29;;;;;;;33.70;19.15;;;4.90;99.90;;;;;;5036445;28;20202;-64
2023/12/15 05:55:57;;;;;;;38.05;19.13;;;4.90;99.90;;;;;;5037142;28;20225;-63
2023/12/15 05:58:24;;;;;;;37.10;21.02;;;4.90;99.90;;;;;;5038150;28;20203;-63
2023/12/15 06:00:51;;;;;;;32.72;19.02;;;4.90;99.90;;;;;;5036852;28;20212;-61
2023/12/15 06:03:18;;;;;;;32.80;18.15;;;4.90;99.90;;;;;;5038685;28;20206;-61
2023/12/15 06:05:44;;;;;;;33.75;20.35;;;4.90;99.90;;;;;;5038669;28;20203;-63
2023/12/15 06:08:13;;;;;;;38.30;21.08;;;4.90;99.90;;;;;;5038717;28;20209;-62
2023/12/15 06:10:40;;;;;;;41.95;22.10;;;4.90;99.90;;;;;;5036836;28;20207;-63
2023/12/15 06:13:09;;;;;;;41.75;20.23;;;4.90;99.90;;;;;;5037186;28;20218;-63
2023/12/15 06:15:36;;;;;;;37.25;20.48;;;4.90;99.90;;;;;;5036569;28;20206;-62
2023/12/15 06:18:04;;;;;;;41.20;20.35;;;4.90;99.90;;;;;;5035920;28;20209;-61
2023/12/15 06:20:31;;;;;;;34.50;20.20;;;5.00;99.90;;;;;;5036633;28;20202;-62
2023/12/15 06:22:58;;;;;;;35.85;19.73;;;5.00;99.90;;;;;;5036921;28;20229;-61
2023/12/15 06:25:25;;;;;;;35.22;18.15;;;5.10;99.90;;;;;;5036594;28;20685;-61
2023/12/15 06:27:52;;;;;;;34.08;18.63;;;5.10;99.90;;;;;;5035666;28;20668;-61
2023/12/15 06:30:20;;;;;;;33.33;19.02;;;5.10;99.90;;;;;;5035260;28;20573;-62
2023/12/15 06:32:47;;;;;;;31.52;18.25;;;5.20;99.90;;;;;;5035121;28;20219;-62
2023/12/15 06:35:15;;;;;;;32.28;18.98;;;5.20;99.90;;;;;;5034161;28;20202;-61
2023/12/15 06:37:43;;;;;;;34.67;21.58;;;5.30;99.90;;;;;;5035198;28;20230;-60
2023/12/15 06:40:10;;;;;;;31.52;18.48;;;5.30;99.90;;;;;;5035223;28;20217;-63
2023/12/15 06:42:37;;;;;;;31.95;16.45;;;5.40;99.90;;;;;;5034864;28;20225;-61
2023/12/15 06:45:07;;;;;;;26.05;15.68;;;5.40;99.90;;;;;;5034125;28;20202;-63
2023/12/15 06:47:37;;;;;;;26.50;16.65;;;5.40;99.90;;;;;;5034563;28;20193;-61
2023/12/15 06:50:06;;;;;;;21.95;15.45;;;5.50;99.90;;;;;;5034474;28;20203;-62
2023/12/15 06:52:33;;;;;;;26.42;16.27;;;5.50;99.90;;;;;;5033970;28;20222;-61
2023/12/15 06:55:00;;;;;;;21.33;15.25;;;5.50;99.90;;;;;;5035187;28;20703;-62
2023/12/15 06:57:27;;;;;;;23.10;14.32;;;5.60;99.90;;;;;;5034300;28;20199;-62
2023/12/15 06:59:54;;;;;;;21.73;14.85;;;5.60;99.90;;;;;;5033756;28;20664;-63
2023/12/15 07:02:20;;;;;;;21.25;14.77;;;5.60;99.90;;;;;;5033476;28;20317;-63
2023/12/15 07:04:49;;;;;;;23.05;15.65;;;5.60;99.90;;;;;;5033758;28;20202;-63
2023/12/15 07:07:15;;;;;;;21.48;15.02;;;5.70;99.90;;;;;;5033742;28;20208;-62
2023/12/15 07:09:42;;;;;;;22.80;16.75;;;5.70;99.90;;;;;;5033645;28;20199;-63
2023/12/15 07:12:09;;;;;;;25.17;16.00;;;5.70;99.90;;;;;;5034057;28;20227;-62
2023/12/15 07:14:36;;;;;;;21.38;14.85;;;5.70;99.90;;;;;;5034446;28;20684;-62
2023/12/15 07:17:03;;;;;;;23.65;15.60;;;5.80;99.90;;;;;;5035242;28;20212;-61
2023/12/15 07:19:30;;;;;;;24.40;14.38;;;5.80;99.90;;;;;;5034696;28;20209;-63
2023/12/15 07:21:58;;;;;;;30.95;18.05;;;5.80;99.90;;;;;;5035589;28;20222;-60
2023/12/15 07:24:25;;;;;;;24.23;15.90;;;5.80;99.90;;;;;;5036026;28;20289;-62
2023/12/15 07:26:52;;;;;;;29.77;19.00;;;5.80;99.90;;;;;;5036344;28;20208;-62
2023/12/15 07:29:21;;;;;;;26.55;15.85;;;5.80;99.90;;;;;;5035432;28;20209;-62
2023/12/15 07:31:48;;;;;;;22.90;15.68;;;5.80;99.90;;;;;;5036283;28;20253;-61
2023/12/15 07:34:15;;;;;;;29.75;18.50;;;5.80;99.90;;;;;;5036779;28;20208;-64
2023/12/15 07:36:42;;;;;;;30.08;18.33;;;5.90;99.90;;;;;;5037451;28;20210;-62
2023/12/15 07:39:10;;;;;;;28.38;16.30;;;5.90;99.90;;;;;;5035885;28;20206;-61
2023/12/15 07:41:39;;;;;;;24.52;16.63;;;5.80;99.90;;;;;;5035524;28;20301;-61
2023/12/15 07:44:06;;;;;;;26.48;17.02;;;5.90;99.90;;;;;;5033877;28;20202;-62
2023/12/15 07:46:33;;;;;;;29.50;21.00;;;5.90;99.90;;;;;;5033696;28;20229;-62
2023/12/15 07:49:00;;;;;;;25.60;16.90;;;5.90;99.90;;;;;;5033982;28;20680;-62
2023/12/15 07:51:26;;;;;;;29.45;17.70;;;5.90;99.90;;;;;;5033587;28;20712;-62
2023/12/15 07:53:53;;;;;;;31.52;19.10;;;6.00;99.90;;;;;;5033703;28;20668;-61
2023/12/15 07:56:23;;;;;;;30.73;19.15;;;6.00;99.90;;;;;;5033561;28;20668;-62
2023/12/15 07:58:50;;;;;;;34.72;19.17;;;6.10;99.90;;;;;;5036930;28;20202;-64
2023/12/15 08:01:17;;;;;;;35.20;20.20;;;6.10;99.90;;;;;;5033448;28;20234;-61
2023/12/15 08:03:44;;;;;;;30.58;18.75;;;6.10;99.90;;;;;;5033755;28;20605;-61
2023/12/15 08:06:12;;;;;;;33.00;19.95;;;6.10;99.90;;;;;;5033434;28;20306;-61
2023/12/15 08:08:39;;;;;;;33.22;19.30;;;6.10;99.90;;;;;;5033215;28;20248;-62
2023/12/15 08:11:06;;;;;;;28.77;18.38;;;6.00;99.90;;;;;;5032561;28;20222;-62
2023/12/15 08:13:34;;;;;;;36.95;21.10;;;6.10;99.90;;;;;;5032493;28;20229;-62
2023/12/15 08:16:03;;;;;;;32.47;17.73;;;6.10;99.90;;;;;;5032831;28;20206;-63
2023/12/15 08:18:29;;;;;;;31.95;20.05;;;6.00;99.90;;;;;;5032840;28;20245;-61
2023/12/15 08:20:56;;;;;;;31.33;19.80;;;6.10;99.90;;;;;;5032974;28;20206;-61
2023/12/15 08:23:23;;;;;;;29.77;18.33;;;6.00;99.90;;;;;;5033707;28;20224;-61
2023/12/15 08:25:50;;;;;;;33.00;18.55;;;6.10;99.90;;;;;;5033861;28;20206;-61
2023/12/15 08:28:18;;;;;;;31.73;19.45;;;6.10;99.90;;;;;;5032448;28;20240;-61
2023/12/15 08:30:47;;;;;;;36.65;19.00;;;6.20;99.90;;;;;;5032527;28;20293;-63
2023/12/15 08:33:13;;;;;;;34.50;19.23;;;6.20;99.90;;;;;;5032979;28;20221;-62
2023/12/15 08:35:40;;;;;;;30.92;19.92;;;6.20;99.90;;;;;;5032561;28;20203;-63
2023/12/15 08:38:07;;;;;;;33.47;20.23;;;6.30;99.90;;;;;;5032647;28;20225;-62
2023/12/15 08:40:34;;;;;;;35.50;19.45;;;6.30;99.90;;;;;;5032473;28;20278;-63
2023/12/15 08:43:01;;;;;;;35.15;19.33;;;6.40;99.90;;;;;;5032595;28;20225;-62
2023/12/15 08:45:28;;;;;;;30.30;19.50;;;6.40;99.90;;;;;;5032574;28;20205;-63
2023/12/15 08:47:56;;;;;;;32.63;18.33;;;6.50;99.90;;;;;;5032349;28;20213;-62
2023/12/15 08:50:23;;;;;;;34.65;19.90;;;6.60;99.90;;;;;;5032810;28;20198;-62
2023/12/15 08:52:50;;;;;;;26.75;17.55;;;6.60;99.90;;;;;;5033005;28;20231;-62
2023/12/15 08:55:17;;;;;;;32.95;19.23;;;6.70;99.90;;;;;;5033118;28;20206;-63
2023/12/15 08:57:44;;;;;;;32.22;18.83;;;6.80;99.90;;;;;;5033197;28;20198;-61
2023/12/15 09:00:11;;;;;;;29.27;17.08;;;6.80;99.90;;;;;;5036667;28;20209;-62
2023/12/15 09:02:38;;;;;;;30.95;17.60;;;6.90;99.90;;;;;;5036087;28;20295;-62
2023/12/15 09:05:07;;;;;;;27.02;16.25;;;6.90;99.90;;;;;;5036315;28;20574;-62
2023/12/15 09:07:34;;;;;;;37.13;16.27;;;7.00;99.90;;;;;;5036214;28;20693;-62
2023/12/15 09:10:02;;;;;;;28.63;16.17;;;7.00;99.90;;;;;;5036299;28;20209;-62
2023/12/15 09:12:28;;;;;;;29.25;16.02;;;7.00;99.90;;;;;;5039298;28;20269;-64
2023/12/15 09:14:56;;;;;;;29.65;16.52;;;7.00;99.90;;;;;;5037068;28;20215;-63
2023/12/15 09:17:23;;;;;;;25.67;15.85;;;7.10;99.90;;;;;;5035812;28;20198;-63
2023/12/15 09:19:50;;;;;;;29.60;16.88;;;7.10;99.90;;;;;;5035606;28;20289;-62
2023/12/15 09:22:18;;;;;;;28.52;17.13;;;7.10;99.90;;;;;;5035412;28;20233;-62
2023/12/15 09:24:45;;;;;;;30.08;17.27;;;7.20;99.90;;;;;;5035250;28;20696;-63
2023/12/15 09:27:12;;;;;;;29.58;16.35;;;7.20;99.90;;;;;;5035704;28;20202;-63
2023/12/15 09:29:38;;;;;;;24.42;15.60;;;7.20;99.90;;;;;;5035216;28;20199;-61
2023/12/15 09:32:05;;;;;;;31.77;16.35;;;7.20;99.90;;;;;;5035750;28;20226;-62
2023/12/15 09:34:32;;;;;;;32.80;17.27;;;7.20;99.90;;;;;;5035310;28;20212;-62
2023/12/15 09:36:59;;;;;;;28.45;17.02;;;7.20;99.90;;;;;;5035422;28;20584;-62
2023/12/15 09:39:27;;;;;;;29.42;16.27;;;7.20;99.90;;;;;;5035766;28;20209;-62
2023/12/15 09:41:54;;;;;;;33.05;18.23;;;7.20;99.90;;;;;;5035861;28;20244;-63
2023/12/15 09:44:21;;;;;;;27.85;17.23;;;7.10;99.90;;;;;;5036026;28;20201;-63
2023/12/15 09:46:49;;;;;;;28.15;16.02;;;7.10;99.90;;;;;;5035144;28;20202;-62
2023/12/15 09:49:18;;;;;;;28.25;17.10;;;7.10;99.90;;;;;;5035313;28;20206;-62
2023/12/15 09:51:49;;;;;;;31.95;17.45;;;7.10;99.90;;;;;;5034947;28;20229;-63
2023/12/15 09:54:16;;;;;;;30.33;16.58;;;7.10;99.90;;;;;;5034844;28;20234;-63
2023/12/15 09:56:46;;;;;;;26.63;17.08;;;7.10;99.90;;;;;;5035308;28;20206;-64
2023/12/15 09:59:13;;;;;;;31.05;17.10;;;7.00;99.90;;;;;;5035213;28;20209;-63
2023/12/15 10:01:40;;;;;;;30.42;17.15;;;7.00;99.90;;;;;;5035432;28;20226;-62
2023/12/15 10:04:07;;;;;;;31.30;18.70;;;7.00;99.90;;;;;;5035741;28;20198;-63
2023/12/15 10:06:35;;;;;;;30.10;18.08;;;7.00;99.90;;;;;;5035332;28;20206;-61
2023/12/15 10:09:01;;;;;;;34.90;19.13;;;7.00;99.90;;;;;;5035104;28;20595;-62
2023/12/15 10:11:32;;;;;;;29.75;17.70;;;7.00;99.90;;;;;;5035752;28;20226;-63
2023/12/15 10:14:04;;;;;;;33.20;17.85;;;7.00;99.90;;;;;;5036813;28;20301;-63
2023/12/15 10:16:31;;;;;;;32.92;19.58;;;7.10;99.90;;;;;;5038131;28;20186;-62
2023/12/15 10:18:58;;;;;;;28.38;18.33;;;7.10;99.90;;;;;;5037536;28;20230;-63
2023/12/15 10:21:25;;;;;;;32.55;18.20;;;7.10;99.90;;;;;;5036697;28;20222;-63
2023/12/15 10:23:51;;;;;;;33.40;17.67;;;7.10;99.90;;;;;;5034887;28;20301;-64
2023/12/15 10:26:18;;;;;;;29.20;17.20;;;7.20;99.90;;;;;;5034330;28;20218;-62
2023/12/15 10:28:45;;;;;;;37.00;18.95;;;7.20;99.90;;;;;;5034974;28;20694;-63
2023/12/15 10:31:14;;;;;;;32.70;18.13;;;7.20;99.90;;;;;;5035759;28;20219;-62
2023/12/15 10:33:41;;;;;;;32.60;17.85;;;7.30;99.90;;;;;;5035742;28;20585;-62
2023/12/15 10:36:11;;;;;;;34.53;18.92;;;7.30;99.90;;;;;;5036149;28;20198;-63
2023/12/15 10:38:38;;;;;;;31.67;16.77;;;7.30;99.90;;;;;;5035882;28;20202;-63
2023/12/15 10:41:06;;;;;;;31.80;16.90;;;7.30;99.90;;;;;;5034777;28;20298;-61
2023/12/15 10:43:33;;;;;;;33.58;18.60;;;7.30;99.90;;;;;;5034452;28;20551;-64
2023/12/15 10:46:00;;;;;;;30.33;16.98;;;7.40;99.90;;;;;;5034099;28;20209;-63
2023/12/15 10:48:31;;;;;;;35.42;18.80;;;7.50;99.90;;;;;;5034500;28;20202;-64
2023/12/15 10:50:59;;;;;;;28.38;17.65;;;7.50;99.90;;;;;;5033991;28;20203;-63
2023/12/15 10:53:26;;;;;;;34.17;17.10;;;7.60;99.90;;;;;;5034142;28;20235;-62
2023/12/15 10:55:53;;;;;;;36.10;17.55;;;7.60;99.90;;;;;;5033693;28;20207;-63
2023/12/15 10:58:19;;;;;;;35.22;17.25;;;7.60;99.90;;;;;;5034254;28;20206;-62
2023/12/15 11:00:47;;;;;;;32.28;18.92;;;7.60;99.90;;;;;;5035791;28;20206;-62
2023/12/15 11:03:14;;;;;;;34.20;17.92;;;7.60;99.90;;;;;;5035207;28;20206;-61
2023/12/15 11:05:42;;;;;;;30.65;17.13;;;7.60;99.90;;;;;;5034606;28;20220;-61
2023/12/15 11:08:10;;;;;;;33.92;18.10;;;7.60;99.90;;;;;;5033937;28;20496;-63
2023/12/15 11:10:37;;;;;;;32.90;17.00;;;7.60;99.90;;;;;;5034053;28;20202;-61
2023/12/15 11:13:04;;;;;;;39.92;19.30;;;7.60;99.90;;;;;;5033931;28;20228;-64
2023/12/15 11:15:31;;;;;;;30.40;19.05;;;7.60;99.90;;;;;;5033813;28;20274;-62
2023/12/15 11:17:59;;;;;;;35.60;17.50;;;7.60;99.90;;;;;;5034498;28;20198;-62
2023/12/15 11:20:43;;;;;;;39.35;18.90;;;7.60;99.90;;;;;;5034094;28;20301;-63
2023/12/15 11:23:12;;;;;;;26.23;16.25;;;7.60;99.90;;;;;;5034172;28;20648;-62
2023/12/15 11:25:53;;;;;;;35.97;18.45;;;7.60;99.90;;;;;;5034372;28;20209;-62
2023/12/15 11:28:21;;;;;;;35.70;17.05;;;7.60;99.90;;;;;;5034217;28;20187;-61
2023/12/15 11:30:52;;;;;;;40.17;17.70;;;7.60;99.90;;;;;;5034518;28;20229;-63
2023/12/15 11:33:41;;;;;;;28.90;16.40;;;7.60;99.90;;;;;;5034864;28;20210;-62
2023/12/15 11:36:12;;;;;;;26.88;15.85;;;7.70;99.90;;;;;;5034255;28;20202;-61
2023/12/15 11:38:39;;;;;;;30.55;17.60;;;7.70;99.90;;;;;;5033831;28;20236;-62
2023/12/15 11:41:06;;;;;;;34.65;18.35;;;7.70;99.90;;;;;;5033153;28;20705;-63
2023/12/15 11:43:36;;;;;;;35.88;19.40;;;7.70;99.90;;;;;;5033521;28;20212;-62
2023/12/15 11:46:03;;;;;;;29.48;15.85;;;7.80;99.90;;;;;;5034721;28;20232;-64
2023/12/15 11:48:30;;;;;;;26.58;15.75;;;7.80;99.90;;;;;;5039262;28;20203;-63
2023/12/15 11:50:57;;;;;;;32.55;17.60;;;7.80;99.90;;;;;;5034867;28;20672;-63
2023/12/15 11:53:25;;;;;;;30.48;15.75;;;7.90;99.90;;;;;;5033275;28;20835;-62
2023/12/15 11:55:52;;;;;;;33.15;15.90;;;7.90;99.90;;;;;;5033237;28;20204;-63
2023/12/15 11:58:19;;;;;;;23.92;15.77;;;8.00;99.90;;;;;;5033281;28;20664;-62
2023/12/15 12:00:46;;;;;;;26.15;16.13;;;8.00;99.90;;;;;;5033537;28;20202;-61
2023/12/15 12:03:14;;;;;;;29.83;16.00;;;8.00;99.90;;;;;;5033741;28;20202;-62
2023/12/15 12:05:42;;;;;;;30.48;15.43;;;8.10;99.90;;;;;;5033568;28;20203;-63
2023/12/15 12:08:10;;;;;;;32.80;15.60;;;8.10;99.90;;;;;;5033768;28;20579;-63
2023/12/15 12:10:40;;;;;;;31.95;16.92;;;8.10;99.90;;;;;;5033730;28;20205;-62
2023/12/15 12:13:07;;;;;;;26.73;14.52;;;8.20;99.90;;;;;;5033467;28;20280;-63
2023/12/15 12:15:48;;;;;;;26.20;13.93;;;8.20;99.90;;;;;;5034455;28;20240;-62
2023/12/15 12:18:14;;;;;;;31.15;17.02;;;8.20;99.90;;;;;;5035227;28;20194;-64
2023/12/15 12:20:42;;;;;;;29.67;15.88;;;8.30;99.90;;;;;;5036238;28;20202;-62
2023/12/15 12:23:10;;;;;;;31.00;17.63;;;8.30;99.90;;;;;;5035563;28;20614;-63
2023/12/15 12:25:44;;;;;;;28.33;16.00;;;8.30;99.90;;;;;;5035488;28;20695;-63
2023/12/15 12:28:11;;;;;;;28.50;14.40;;;8.30;99.90;;;;;;5032856;28;20186;-62
2023/12/15 12:30:38;;;;;;;29.33;14.50;;;8.30;99.90;;;;;;5032952;28;20288;-62
2023/12/15 12:33:05;;;;;;;25.83;13.90;;;8.30;99.90;;;;;;5034913;28;20213;-63
2023/12/15 12:35:32;;;;;;;24.00;13.57;;;8.30;99.90;;;;;;5037098;28;20221;-63
2023/12/15 12:37:59;;;;;;;23.95;13.48;;;8.30;99.90;;;;;;5038294;28;20529;-63